sensor_id;sensor_type;location;lat;lon;timestamp;P1;durP1;ratioP1;P2;durP2;ratioP2
57832;SDS011;43667;53.036;6.740;2023-12-20T00:01:54;14.93;;;2.65;;
57832;SDS011;43667;53.036;6.740;2023-12-20T00:04:20;16.40;;;2.33;;
57832;SDS011;43667;53.036;6.740;2023-12-20T00:06:46;15.77;;;2.78;;
57832;SDS011;43667;53.036;6.740;2023-12-20T00:09:12;18.27;;;2.72;;
57832;SDS011;43667;53.036;6.740;2023-12-20T00:11:38;19.50;;;3.45;;
57832;SDS011;43667;53.036;6.740;2023-12-20T00:14:04;21.13;;;2.83;;
57832;SDS011;43667;53.036;6.740;2023-12-20T00:16:30;17.13;;;3.05;;
57832;SDS011;43667;53.036;6.740;2023-12-20T00:18:56;11.55;;;2.33;;
57832;SDS011;43667;53.036;6.740;2023-12-20T00:21:22;19.08;;;2.80;;
57832;SDS011;43667;53.036;6.740;2023-12-20T00:23:49;26.05;;;3.35;;
57832;SDS011;43667;53.036;6.740;2023-12-20T00:26:15;13.45;;;2.20;;
57832;SDS011;43667;53.036;6.740;2023-12-20T00:28:41;16.95;;;2.33;;
57832;SDS011;43667;53.036;6.740;2023-12-20T00:31:07;21.10;;;3.47;;
57832;SDS011;43667;53.036;6.740;2023-12-20T00:33:33;19.60;;;2.60;;
57832;SDS011;43667;53.036;6.740;2023-12-20T00:36:00;16.73;;;2.65;;
57832;SDS011;43667;53.036;6.740;2023-12-20T00:38:26;19.88;;;2.72;;
57832;SDS011;43667;53.036;6.740;2023-12-20T00:40:52;23.27;;;3.25;;
57832;SDS011;43667;53.036;6.740;2023-12-20T00:43:18;20.83;;;2.45;;
57832;SDS011;43667;53.036;6.740;2023-12-20T00:45:44;14.95;;;2.35;;
57832;SDS011;43667;53.036;6.740;2023-12-20T00:48:10;16.20;;;2.60;;
57832;SDS011;43667;53.036;6.740;2023-12-20T00:50:37;18.42;;;2.67;;
57832;SDS011;43667;53.036;6.740;2023-12-20T00:53:03;28.48;;;2.95;;
57832;SDS011;43667;53.036;6.740;2023-12-20T00:55:29;26.13;;;3.20;;
57832;SDS011;43667;53.036;6.740;2023-12-20T00:57:55;17.98;;;2.50;;
57832;SDS011;43667;53.036;6.740;2023-12-20T01:00:21;19.67;;;3.00;;
57832;SDS011;43667;53.036;6.740;2023-12-20T01:02:47;23.40;;;2.92;;
57832;SDS011;43667;53.036;6.740;2023-12-20T01:05:16;24.98;;;3.95;;
57832;SDS011;43667;53.036;6.740;2023-12-20T01:07:42;22.92;;;2.60;;
57832;SDS011;43667;53.036;6.740;2023-12-20T01:10:08;19.77;;;2.80;;
57832;SDS011;43667;53.036;6.740;2023-12-20T01:12:35;25.02;;;3.67;;
57832;SDS011;43667;53.036;6.740;2023-12-20T01:15:02;24.05;;;2.80;;
57832;SDS011;43667;53.036;6.740;2023-12-20T01:17:28;23.33;;;3.03;;
57832;SDS011;43667;53.036;6.740;2023-12-20T01:19:54;26.15;;;3.10;;
57832;SDS011;43667;53.036;6.740;2023-12-20T01:22:20;26.08;;;3.33;;
57832;SDS011;43667;53.036;6.740;2023-12-20T01:24:46;31.25;;;2.78;;
57832;SDS011;43667;53.036;6.740;2023-12-20T01:27:12;25.45;;;3.05;;
57832;SDS011;43667;53.036;6.740;2023-12-20T01:29:38;23.90;;;2.92;;
57832;SDS011;43667;53.036;6.740;2023-12-20T01:32:04;23.15;;;2.80;;
57832;SDS011;43667;53.036;6.740;2023-12-20T01:34:30;20.92;;;3.35;;
57832;SDS011;43667;53.036;6.740;2023-12-20T01:36:56;20.27;;;2.53;;
57832;SDS011;43667;53.036;6.740;2023-12-20T01:39:22;25.73;;;5.05;;
57832;SDS011;43667;53.036;6.740;2023-12-20T01:41:48;25.15;;;3.55;;
57832;SDS011;43667;53.036;6.740;2023-12-20T01:44:14;22.85;;;3.40;;
57832;SDS011;43667;53.036;6.740;2023-12-20T01:46:40;25.55;;;3.50;;
57832;SDS011;43667;53.036;6.740;2023-12-20T01:49:06;22.65;;;3.35;;
57832;SDS011;43667;53.036;6.740;2023-12-20T01:51:33;23.48;;;2.88;;
57832;SDS011;43667;53.036;6.740;2023-12-20T01:53:59;29.50;;;3.50;;
57832;SDS011;43667;53.036;6.740;2023-12-20T01:56:26;27.02;;;3.60;;
57832;SDS011;43667;53.036;6.740;2023-12-20T01:58:52;20.75;;;2.67;;
57832;SDS011;43667;53.036;6.740;2023-12-20T02:01:19;26.90;;;2.70;;
57832;SDS011;43667;53.036;6.740;2023-12-20T02:03:45;29.35;;;3.55;;
57832;SDS011;43667;53.036;6.740;2023-12-20T02:06:11;24.83;;;4.15;;
57832;SDS011;43667;53.036;6.740;2023-12-20T02:08:37;20.77;;;3.30;;
57832;SDS011;43667;53.036;6.740;2023-12-20T02:11:03;26.30;;;3.25;;
57832;SDS011;43667;53.036;6.740;2023-12-20T02:13:30;21.02;;;3.22;;
57832;SDS011;43667;53.036;6.740;2023-12-20T02:15:56;23.20;;;3.22;;
57832;SDS011;43667;53.036;6.740;2023-12-20T02:18:22;28.65;;;3.40;;
57832;SDS011;43667;53.036;6.740;2023-12-20T02:20:48;27.40;;;3.33;;
57832;SDS011;43667;53.036;6.740;2023-12-20T02:23:14;26.92;;;3.58;;
57832;SDS011;43667;53.036;6.740;2023-12-20T02:25:40;28.08;;;3.35;;
57832;SDS011;43667;53.036;6.740;2023-12-20T02:28:07;24.70;;;3.10;;
57832;SDS011;43667;53.036;6.740;2023-12-20T02:30:33;40.00;;;3.55;;
57832;SDS011;43667;53.036;6.740;2023-12-20T02:32:59;23.40;;;3.25;;
57832;SDS011;43667;53.036;6.740;2023-12-20T02:35:26;30.77;;;4.32;;
57832;SDS011;43667;53.036;6.740;2023-12-20T02:37:52;26.33;;;3.58;;
57832;SDS011;43667;53.036;6.740;2023-12-20T02:40:18;27.05;;;4.07;;
57832;SDS011;43667;53.036;6.740;2023-12-20T02:42:44;32.58;;;4.13;;
57832;SDS011;43667;53.036;6.740;2023-12-20T02:45:10;30.50;;;3.65;;
57832;SDS011;43667;53.036;6.740;2023-12-20T02:47:36;24.83;;;3.67;;
57832;SDS011;43667;53.036;6.740;2023-12-20T02:50:02;35.40;;;4.88;;
57832;SDS011;43667;53.036;6.740;2023-12-20T02:52:28;26.70;;;3.55;;
57832;SDS011;43667;53.036;6.740;2023-12-20T02:54:55;20.73;;;3.45;;
57832;SDS011;43667;53.036;6.740;2023-12-20T02:57:21;25.10;;;3.90;;
57832;SDS011;43667;53.036;6.740;2023-12-20T02:59:47;25.30;;;3.63;;
57832;SDS011;43667;53.036;6.740;2023-12-20T03:02:13;22.08;;;4.35;;
57832;SDS011;43667;53.036;6.740;2023-12-20T03:04:39;31.13;;;4.32;;
57832;SDS011;43667;53.036;6.740;2023-12-20T03:07:05;32.05;;;4.18;;
57832;SDS011;43667;53.036;6.740;2023-12-20T03:09:31;31.20;;;5.85;;
57832;SDS011;43667;53.036;6.740;2023-12-20T03:11:57;40.17;;;7.25;;
57832;SDS011;43667;53.036;6.740;2023-12-20T03:14:23;25.75;;;4.15;;
57832;SDS011;43667;53.036;6.740;2023-12-20T03:16:49;25.95;;;3.90;;
57832;SDS011;43667;53.036;6.740;2023-12-20T03:19:16;30.27;;;4.50;;
57832;SDS011;43667;53.036;6.740;2023-12-20T03:21:42;33.45;;;5.13;;
57832;SDS011;43667;53.036;6.740;2023-12-20T03:24:08;30.80;;;4.93;;
57832;SDS011;43667;53.036;6.740;2023-12-20T03:26:34;25.85;;;3.97;;
57832;SDS011;43667;53.036;6.740;2023-12-20T03:29:00;33.38;;;4.13;;
57832;SDS011;43667;53.036;6.740;2023-12-20T03:31:26;31.33;;;3.97;;
57832;SDS011;43667;53.036;6.740;2023-12-20T03:33:52;35.47;;;4.55;;
57832;SDS011;43667;53.036;6.740;2023-12-20T03:36:19;30.13;;;5.10;;
57832;SDS011;43667;53.036;6.740;2023-12-20T03:38:45;39.00;;;5.28;;
57832;SDS011;43667;53.036;6.740;2023-12-20T03:41:11;35.28;;;4.43;;
57832;SDS011;43667;53.036;6.740;2023-12-20T03:43:37;30.80;;;4.55;;
57832;SDS011;43667;53.036;6.740;2023-12-20T03:46:03;43.17;;;6.80;;
57832;SDS011;43667;53.036;6.740;2023-12-20T03:48:30;32.20;;;4.40;;
57832;SDS011;43667;53.036;6.740;2023-12-20T03:50:56;39.17;;;5.78;;
57832;SDS011;43667;53.036;6.740;2023-12-20T03:53:22;35.28;;;4.93;;
57832;SDS011;43667;53.036;6.740;2023-12-20T03:55:48;36.58;;;5.15;;
57832;SDS011;43667;53.036;6.740;2023-12-20T03:58:14;34.80;;;4.85;;
57832;SDS011;43667;53.036;6.740;2023-12-20T04:00:40;28.23;;;5.45;;
57832;SDS011;43667;53.036;6.740;2023-12-20T04:03:06;35.85;;;4.63;;
57832;SDS011;43667;53.036;6.740;2023-12-20T04:05:33;34.63;;;5.53;;
57832;SDS011;43667;53.036;6.740;2023-12-20T04:07:59;34.90;;;4.82;;
57832;SDS011;43667;53.036;6.740;2023-12-20T04:10:25;37.90;;;5.20;;
57832;SDS011;43667;53.036;6.740;2023-12-20T04:12:52;35.45;;;5.07;;
57832;SDS011;43667;53.036;6.740;2023-12-20T04:15:18;33.50;;;5.00;;
57832;SDS011;43667;53.036;6.740;2023-12-20T04:17:44;32.15;;;4.55;;
57832;SDS011;43667;53.036;6.740;2023-12-20T04:20:10;36.83;;;6.20;;
57832;SDS011;43667;53.036;6.740;2023-12-20T04:22:36;26.67;;;5.03;;
57832;SDS011;43667;53.036;6.740;2023-12-20T04:25:02;37.83;;;6.35;;
57832;SDS011;43667;53.036;6.740;2023-12-20T04:27:28;29.83;;;4.68;;
57832;SDS011;43667;53.036;6.740;2023-12-20T04:29:54;28.10;;;4.47;;
57832;SDS011;43667;53.036;6.740;2023-12-20T04:32:20;47.03;;;7.18;;
57832;SDS011;43667;53.036;6.740;2023-12-20T04:34:46;26.70;;;4.32;;
57832;SDS011;43667;53.036;6.740;2023-12-20T04:37:12;29.15;;;4.55;;
57832;SDS011;43667;53.036;6.740;2023-12-20T04:39:38;33.03;;;5.50;;
57832;SDS011;43667;53.036;6.740;2023-12-20T04:42:06;23.17;;;5.53;;
57832;SDS011;43667;53.036;6.740;2023-12-20T04:44:32;32.67;;;5.85;;
57832;SDS011;43667;53.036;6.740;2023-12-20T04:46:59;30.80;;;6.50;;
57832;SDS011;43667;53.036;6.740;2023-12-20T04:49:26;34.90;;;5.28;;
57832;SDS011;43667;53.036;6.740;2023-12-20T04:51:52;29.05;;;4.78;;
57832;SDS011;43667;53.036;6.740;2023-12-20T04:54:18;37.53;;;5.50;;
57832;SDS011;43667;53.036;6.740;2023-12-20T04:56:44;35.03;;;5.68;;
57832;SDS011;43667;53.036;6.740;2023-12-20T04:59:10;34.97;;;5.65;;
57832;SDS011;43667;53.036;6.740;2023-12-20T05:01:36;31.83;;;5.03;;
57832;SDS011;43667;53.036;6.740;2023-12-20T05:04:02;35.47;;;5.78;;
57832;SDS011;43667;53.036;6.740;2023-12-20T05:06:28;35.35;;;4.85;;
57832;SDS011;43667;53.036;6.740;2023-12-20T05:08:54;41.00;;;5.47;;
57832;SDS011;43667;53.036;6.740;2023-12-20T05:11:21;31.70;;;4.85;;
57832;SDS011;43667;53.036;6.740;2023-12-20T05:13:47;38.53;;;5.07;;
57832;SDS011;43667;53.036;6.740;2023-12-20T05:16:13;31.10;;;5.25;;
57832;SDS011;43667;53.036;6.740;2023-12-20T05:18:39;25.80;;;5.03;;
57832;SDS011;43667;53.036;6.740;2023-12-20T05:21:05;29.13;;;4.60;;
57832;SDS011;43667;53.036;6.740;2023-12-20T05:23:32;34.05;;;5.22;;
57832;SDS011;43667;53.036;6.740;2023-12-20T05:25:58;25.27;;;4.47;;
57832;SDS011;43667;53.036;6.740;2023-12-20T05:28:26;25.50;;;4.03;;
57832;SDS011;43667;53.036;6.740;2023-12-20T05:30:53;31.80;;;6.90;;
57832;SDS011;43667;53.036;6.740;2023-12-20T05:33:19;37.85;;;4.88;;
57832;SDS011;43667;53.036;6.740;2023-12-20T05:35:45;25.55;;;4.22;;
57832;SDS011;43667;53.036;6.740;2023-12-20T05:38:11;29.42;;;4.70;;
57832;SDS011;43667;53.036;6.740;2023-12-20T05:40:37;26.58;;;4.55;;
57832;SDS011;43667;53.036;6.740;2023-12-20T05:43:03;28.85;;;4.30;;
57832;SDS011;43667;53.036;6.740;2023-12-20T05:45:29;30.83;;;5.15;;
57832;SDS011;43667;53.036;6.740;2023-12-20T05:47:55;37.63;;;6.32;;
57832;SDS011;43667;53.036;6.740;2023-12-20T05:50:22;33.40;;;4.82;;
57832;SDS011;43667;53.036;6.740;2023-12-20T05:52:48;30.95;;;5.53;;
57832;SDS011;43667;53.036;6.740;2023-12-20T05:55:14;29.85;;;4.60;;
57832;SDS011;43667;53.036;6.740;2023-12-20T05:57:40;27.38;;;4.43;;
57832;SDS011;43667;53.036;6.740;2023-12-20T06:00:08;28.38;;;4.80;;
57832;SDS011;43667;53.036;6.740;2023-12-20T06:02:34;25.48;;;4.45;;
57832;SDS011;43667;53.036;6.740;2023-12-20T06:05:02;32.17;;;5.15;;
57832;SDS011;43667;53.036;6.740;2023-12-20T06:07:28;28.50;;;4.57;;
57832;SDS011;43667;53.036;6.740;2023-12-20T06:09:54;33.72;;;5.53;;
57832;SDS011;43667;53.036;6.740;2023-12-20T06:12:20;22.30;;;4.63;;
57832;SDS011;43667;53.036;6.740;2023-12-20T06:14:46;30.23;;;4.35;;
57832;SDS011;43667;53.036;6.740;2023-12-20T06:17:12;30.33;;;4.70;;
57832;SDS011;43667;53.036;6.740;2023-12-20T06:19:38;28.75;;;4.43;;
57832;SDS011;43667;53.036;6.740;2023-12-20T06:22:05;28.13;;;4.82;;
57832;SDS011;43667;53.036;6.740;2023-12-20T06:24:31;30.85;;;4.50;;
57832;SDS011;43667;53.036;6.740;2023-12-20T06:26:58;32.63;;;6.55;;
57832;SDS011;43667;53.036;6.740;2023-12-20T06:29:24;30.00;;;4.78;;
57832;SDS011;43667;53.036;6.740;2023-12-20T06:31:51;35.58;;;5.25;;
57832;SDS011;43667;53.036;6.740;2023-12-20T06:34:17;35.28;;;4.75;;
57832;SDS011;43667;53.036;6.740;2023-12-20T06:36:43;31.90;;;4.45;;
57832;SDS011;43667;53.036;6.740;2023-12-20T06:39:09;29.05;;;4.72;;
57832;SDS011;43667;53.036;6.740;2023-12-20T06:41:37;27.65;;;5.75;;
57832;SDS011;43667;53.036;6.740;2023-12-20T06:44:03;38.17;;;6.15;;
57832;SDS011;43667;53.036;6.740;2023-12-20T06:46:29;31.35;;;4.80;;
57832;SDS011;43667;53.036;6.740;2023-12-20T06:48:55;34.65;;;6.03;;
57832;SDS011;43667;53.036;6.740;2023-12-20T06:51:21;33.50;;;5.00;;
57832;SDS011;43667;53.036;6.740;2023-12-20T06:53:50;29.40;;;4.95;;
57832;SDS011;43667;53.036;6.740;2023-12-20T06:56:16;37.92;;;5.60;;
57832;SDS011;43667;53.036;6.740;2023-12-20T06:58:42;31.77;;;4.82;;
57832;SDS011;43667;53.036;6.740;2023-12-20T07:01:12;42.25;;;6.20;;
57832;SDS011;43667;53.036;6.740;2023-12-20T07:03:38;35.30;;;4.60;;
57832;SDS011;43667;53.036;6.740;2023-12-20T07:06:05;35.85;;;5.07;;
57832;SDS011;43667;53.036;6.740;2023-12-20T07:08:31;29.17;;;5.22;;
57832;SDS011;43667;53.036;6.740;2023-12-20T07:10:57;30.42;;;5.07;;
57832;SDS011;43667;53.036;6.740;2023-12-20T07:13:23;33.00;;;5.75;;
57832;SDS011;43667;53.036;6.740;2023-12-20T07:15:49;33.40;;;5.25;;
57832;SDS011;43667;53.036;6.740;2023-12-20T07:18:15;32.78;;;5.00;;
57832;SDS011;43667;53.036;6.740;2023-12-20T07:20:42;35.63;;;5.03;;
57832;SDS011;43667;53.036;6.740;2023-12-20T07:23:08;37.75;;;5.47;;
57832;SDS011;43667;53.036;6.740;2023-12-20T07:25:34;33.35;;;6.57;;
57832;SDS011;43667;53.036;6.740;2023-12-20T07:28:00;30.52;;;5.30;;
57832;SDS011;43667;53.036;6.740;2023-12-20T07:30:26;26.73;;;4.35;;
57832;SDS011;43667;53.036;6.740;2023-12-20T07:32:53;28.05;;;4.63;;
57832;SDS011;43667;53.036;6.740;2023-12-20T07:35:19;30.75;;;4.65;;
57832;SDS011;43667;53.036;6.740;2023-12-20T07:37:45;37.65;;;5.30;;
57832;SDS011;43667;53.036;6.740;2023-12-20T07:40:11;29.73;;;4.82;;
57832;SDS011;43667;53.036;6.740;2023-12-20T07:42:37;29.80;;;4.47;;
57832;SDS011;43667;53.036;6.740;2023-12-20T07:45:03;29.85;;;4.55;;
57832;SDS011;43667;53.036;6.740;2023-12-20T07:47:29;39.10;;;6.45;;
57832;SDS011;43667;53.036;6.740;2023-12-20T07:49:55;36.30;;;5.70;;
57832;SDS011;43667;53.036;6.740;2023-12-20T07:52:21;32.33;;;5.00;;
57832;SDS011;43667;53.036;6.740;2023-12-20T07:54:47;38.60;;;5.43;;
57832;SDS011;43667;53.036;6.740;2023-12-20T07:57:13;33.10;;;5.47;;
57832;SDS011;43667;53.036;6.740;2023-12-20T07:59:39;27.48;;;4.47;;
57832;SDS011;43667;53.036;6.740;2023-12-20T08:02:06;26.48;;;4.65;;
57832;SDS011;43667;53.036;6.740;2023-12-20T08:04:32;32.63;;;5.22;;
57832;SDS011;43667;53.036;6.740;2023-12-20T08:06:58;25.45;;;5.05;;
57832;SDS011;43667;53.036;6.740;2023-12-20T08:09:25;23.77;;;4.43;;
57832;SDS011;43667;53.036;6.740;2023-12-20T08:11:51;23.83;;;3.85;;
57832;SDS011;43667;53.036;6.740;2023-12-20T08:14:17;25.17;;;4.90;;
57832;SDS011;43667;53.036;6.740;2023-12-20T08:16:43;28.70;;;5.03;;
57832;SDS011;43667;53.036;6.740;2023-12-20T08:19:09;22.40;;;4.95;;
57832;SDS011;43667;53.036;6.740;2023-12-20T08:21:35;27.90;;;5.40;;
57832;SDS011;43667;53.036;6.740;2023-12-20T08:24:01;23.23;;;4.65;;
57832;SDS011;43667;53.036;6.740;2023-12-20T08:26:27;38.30;;;5.32;;
57832;SDS011;43667;53.036;6.740;2023-12-20T08:28:53;31.08;;;5.47;;
57832;SDS011;43667;53.036;6.740;2023-12-20T08:31:19;28.52;;;4.68;;
57832;SDS011;43667;53.036;6.740;2023-12-20T08:33:46;18.67;;;4.07;;
57832;SDS011;43667;53.036;6.740;2023-12-20T08:36:13;28.30;;;5.18;;
57832;SDS011;43667;53.036;6.740;2023-12-20T08:38:39;31.38;;;5.63;;
57832;SDS011;43667;53.036;6.740;2023-12-20T08:41:06;22.17;;;3.95;;
57832;SDS011;43667;53.036;6.740;2023-12-20T08:43:33;25.55;;;3.80;;
57832;SDS011;43667;53.036;6.740;2023-12-20T08:46:00;17.85;;;3.85;;
57832;SDS011;43667;53.036;6.740;2023-12-20T08:48:26;15.38;;;3.00;;
57832;SDS011;43667;53.036;6.740;2023-12-20T08:50:52;14.18;;;2.80;;
57832;SDS011;43667;53.036;6.740;2023-12-20T08:53:18;13.05;;;2.10;;
57832;SDS011;43667;53.036;6.740;2023-12-20T08:55:44;13.00;;;2.67;;
57832;SDS011;43667;53.036;6.740;2023-12-20T08:58:11;16.00;;;2.35;;
57832;SDS011;43667;53.036;6.740;2023-12-20T09:00:37;17.08;;;2.45;;
57832;SDS011;43667;53.036;6.740;2023-12-20T09:03:04;20.35;;;3.70;;
57832;SDS011;43667;53.036;6.740;2023-12-20T09:05:30;15.18;;;3.00;;
57832;SDS011;43667;53.036;6.740;2023-12-20T09:07:56;22.10;;;3.40;;
57832;SDS011;43667;53.036;6.740;2023-12-20T09:10:22;20.73;;;3.53;;
57832;SDS011;43667;53.036;6.740;2023-12-20T09:12:49;15.27;;;3.40;;
57832;SDS011;43667;53.036;6.740;2023-12-20T09:15:15;21.25;;;4.25;;
57832;SDS011;43667;53.036;6.740;2023-12-20T09:17:41;21.20;;;4.05;;
57832;SDS011;43667;53.036;6.740;2023-12-20T09:20:08;26.45;;;3.90;;
57832;SDS011;43667;53.036;6.740;2023-12-20T09:22:35;25.17;;;4.82;;
57832;SDS011;43667;53.036;6.740;2023-12-20T09:25:03;16.17;;;2.83;;
57832;SDS011;43667;53.036;6.740;2023-12-20T09:27:29;14.40;;;2.65;;
57832;SDS011;43667;53.036;6.740;2023-12-20T09:29:55;9.18;;;1.60;;
57832;SDS011;43667;53.036;6.740;2023-12-20T09:32:21;8.70;;;1.27;;
57832;SDS011;43667;53.036;6.740;2023-12-20T09:34:47;8.98;;;1.85;;
57832;SDS011;43667;53.036;6.740;2023-12-20T09:37:13;5.32;;;1.13;;
57832;SDS011;43667;53.036;6.740;2023-12-20T09:39:39;8.38;;;0.90;;
57832;SDS011;43667;53.036;6.740;2023-12-20T09:42:06;10.20;;;1.20;;
57832;SDS011;43667;53.036;6.740;2023-12-20T09:44:32;8.25;;;1.08;;
57832;SDS011;43667;53.036;6.740;2023-12-20T09:47:00;9.98;;;1.25;;
57832;SDS011;43667;53.036;6.740;2023-12-20T09:49:28;9.55;;;1.08;;
57832;SDS011;43667;53.036;6.740;2023-12-20T09:51:54;9.05;;;1.15;;
57832;SDS011;43667;53.036;6.740;2023-12-20T09:54:21;7.75;;;1.42;;
57832;SDS011;43667;53.036;6.740;2023-12-20T09:56:47;5.63;;;0.88;;
57832;SDS011;43667;53.036;6.740;2023-12-20T09:59:14;7.47;;;1.30;;
57832;SDS011;43667;53.036;6.740;2023-12-20T10:01:40;4.72;;;0.85;;
57832;SDS011;43667;53.036;6.740;2023-12-20T10:04:07;5.28;;;0.90;;
57832;SDS011;43667;53.036;6.740;2023-12-20T10:06:43;9.13;;;1.20;;
57832;SDS011;43667;53.036;6.740;2023-12-20T10:09:10;6.78;;;1.10;;
57832;SDS011;43667;53.036;6.740;2023-12-20T10:11:36;12.52;;;1.38;;
57832;SDS011;43667;53.036;6.740;2023-12-20T10:14:03;8.40;;;1.33;;
57832;SDS011;43667;53.036;6.740;2023-12-20T10:16:29;4.85;;;1.35;;
57832;SDS011;43667;53.036;6.740;2023-12-20T10:18:56;10.48;;;1.35;;
57832;SDS011;43667;53.036;6.740;2023-12-20T10:21:22;11.90;;;1.92;;
57832;SDS011;43667;53.036;6.740;2023-12-20T10:23:51;13.40;;;2.50;;
57832;SDS011;43667;53.036;6.740;2023-12-20T10:26:21;12.40;;;1.27;;
57832;SDS011;43667;53.036;6.740;2023-12-20T10:28:54;8.77;;;1.40;;
57832;SDS011;43667;53.036;6.740;2023-12-20T10:31:30;10.77;;;1.50;;
57832;SDS011;43667;53.036;6.740;2023-12-20T10:33:57;9.93;;;1.98;;
57832;SDS011;43667;53.036;6.740;2023-12-20T10:36:24;14.20;;;1.70;;
57832;SDS011;43667;53.036;6.740;2023-12-20T10:38:52;8.98;;;1.63;;
57832;SDS011;43667;53.036;6.740;2023-12-20T10:41:24;6.65;;;1.40;;
57832;SDS011;43667;53.036;6.740;2023-12-20T10:43:51;11.13;;;1.67;;
57832;SDS011;43667;53.036;6.740;2023-12-20T10:46:19;13.07;;;1.67;;
57832;SDS011;43667;53.036;6.740;2023-12-20T10:48:45;13.68;;;1.75;;
57832;SDS011;43667;53.036;6.740;2023-12-20T10:51:13;7.97;;;1.40;;
57832;SDS011;43667;53.036;6.740;2023-12-20T10:53:40;14.38;;;1.48;;
57832;SDS011;43667;53.036;6.740;2023-12-20T10:56:06;13.80;;;1.92;;
57832;SDS011;43667;53.036;6.740;2023-12-20T10:58:33;16.50;;;1.90;;
57832;SDS011;43667;53.036;6.740;2023-12-20T11:01:01;14.77;;;2.03;;
57832;SDS011;43667;53.036;6.740;2023-12-20T11:03:27;13.57;;;1.98;;
57832;SDS011;43667;53.036;6.740;2023-12-20T11:06:03;22.38;;;2.72;;
57832;SDS011;43667;53.036;6.740;2023-12-20T11:10:59;10.10;;;1.80;;
57832;SDS011;43667;53.036;6.740;2023-12-20T11:13:30;8.93;;;1.55;;
57832;SDS011;43667;53.036;6.740;2023-12-20T11:15:58;14.77;;;3.20;;
57832;SDS011;43667;53.036;6.740;2023-12-20T11:18:30;10.82;;;1.70;;
57832;SDS011;43667;53.036;6.740;2023-12-20T11:21:05;14.20;;;1.92;;
57832;SDS011;43667;53.036;6.740;2023-12-20T11:23:32;17.08;;;1.70;;
57832;SDS011;43667;53.036;6.740;2023-12-20T11:25:59;10.93;;;1.83;;
57832;SDS011;43667;53.036;6.740;2023-12-20T11:28:26;15.43;;;2.20;;
57832;SDS011;43667;53.036;6.740;2023-12-20T11:33:22;10.95;;;1.80;;
57832;SDS011;43667;53.036;6.740;2023-12-20T11:35:48;9.73;;;1.73;;
57832;SDS011;43667;53.036;6.740;2023-12-20T11:38:14;14.00;;;2.30;;
57832;SDS011;43667;53.036;6.740;2023-12-20T11:40:41;13.30;;;2.03;;
57832;SDS011;43667;53.036;6.740;2023-12-20T11:43:07;14.02;;;2.00;;
57832;SDS011;43667;53.036;6.740;2023-12-20T11:45:33;13.82;;;1.67;;
57832;SDS011;43667;53.036;6.740;2023-12-20T11:48:00;13.57;;;2.10;;
57832;SDS011;43667;53.036;6.740;2023-12-20T11:50:27;16.35;;;2.15;;
57832;SDS011;43667;53.036;6.740;2023-12-20T11:52:55;15.43;;;2.20;;
57832;SDS011;43667;53.036;6.740;2023-12-20T11:55:21;20.80;;;3.03;;
57832;SDS011;43667;53.036;6.740;2023-12-20T11:57:49;15.65;;;2.13;;
57832;SDS011;43667;53.036;6.740;2023-12-20T12:00:15;10.45;;;2.30;;
57832;SDS011;43667;53.036;6.740;2023-12-20T12:02:41;12.50;;;2.53;;
57832;SDS011;43667;53.036;6.740;2023-12-20T12:05:08;10.68;;;1.38;;
57832;SDS011;43667;53.036;6.740;2023-12-20T12:07:34;12.55;;;2.53;;
57832;SDS011;43667;53.036;6.740;2023-12-20T12:10:00;16.10;;;2.13;;
57832;SDS011;43667;53.036;6.740;2023-12-20T12:12:28;17.50;;;3.13;;
57832;SDS011;43667;53.036;6.740;2023-12-20T12:14:55;14.30;;;1.88;;
57832;SDS011;43667;53.036;6.740;2023-12-20T12:17:22;18.42;;;1.83;;
57832;SDS011;43667;53.036;6.740;2023-12-20T12:19:48;14.05;;;2.75;;
57832;SDS011;43667;53.036;6.740;2023-12-20T12:22:14;12.32;;;2.13;;
57832;SDS011;43667;53.036;6.740;2023-12-20T12:24:44;13.25;;;2.20;;
57832;SDS011;43667;53.036;6.740;2023-12-20T12:27:11;17.10;;;3.25;;
57832;SDS011;43667;53.036;6.740;2023-12-20T12:29:38;10.07;;;2.50;;
57832;SDS011;43667;53.036;6.740;2023-12-20T12:32:04;16.23;;;1.95;;
57832;SDS011;43667;53.036;6.740;2023-12-20T12:34:31;11.98;;;1.73;;
57832;SDS011;43667;53.036;6.740;2023-12-20T12:36:57;13.50;;;2.20;;
57832;SDS011;43667;53.036;6.740;2023-12-20T12:39:25;20.55;;;3.03;;
57832;SDS011;43667;53.036;6.740;2023-12-20T12:41:51;13.77;;;1.92;;
57832;SDS011;43667;53.036;6.740;2023-12-20T12:44:17;15.15;;;2.35;;
57832;SDS011;43667;53.036;6.740;2023-12-20T12:46:46;14.10;;;2.28;;
57832;SDS011;43667;53.036;6.740;2023-12-20T12:49:15;12.77;;;2.42;;
57832;SDS011;43667;53.036;6.740;2023-12-20T12:51:41;17.45;;;2.40;;
57832;SDS011;43667;53.036;6.740;2023-12-20T12:54:08;21.10;;;3.15;;
57832;SDS011;43667;53.036;6.740;2023-12-20T12:56:35;21.88;;;2.20;;
57832;SDS011;43667;53.036;6.740;2023-12-20T12:59:01;18.13;;;2.40;;
57832;SDS011;43667;53.036;6.740;2023-12-20T13:01:27;21.05;;;2.55;;
57832;SDS011;43667;53.036;6.740;2023-12-20T13:03:53;18.95;;;2.63;;
57832;SDS011;43667;53.036;6.740;2023-12-20T13:06:19;15.10;;;2.50;;
57832;SDS011;43667;53.036;6.740;2023-12-20T13:08:45;13.18;;;2.20;;
57832;SDS011;43667;53.036;6.740;2023-12-20T13:11:11;21.83;;;3.33;;
57832;SDS011;43667;53.036;6.740;2023-12-20T13:13:38;16.77;;;2.33;;
57832;SDS011;43667;53.036;6.740;2023-12-20T13:16:04;16.90;;;2.88;;
57832;SDS011;43667;53.036;6.740;2023-12-20T13:18:30;12.25;;;2.30;;
57832;SDS011;43667;53.036;6.740;2023-12-20T13:20:56;18.95;;;2.45;;
57832;SDS011;43667;53.036;6.740;2023-12-20T13:23:22;16.15;;;2.33;;
57832;SDS011;43667;53.036;6.740;2023-12-20T13:25:48;18.40;;;2.83;;
57832;SDS011;43667;53.036;6.740;2023-12-20T13:28:14;16.38;;;2.10;;
57832;SDS011;43667;53.036;6.740;2023-12-20T13:30:42;15.23;;;2.55;;
57832;SDS011;43667;53.036;6.740;2023-12-20T13:33:09;13.55;;;2.78;;
57832;SDS011;43667;53.036;6.740;2023-12-20T13:35:35;17.73;;;2.58;;
57832;SDS011;43667;53.036;6.740;2023-12-20T13:38:01;15.73;;;2.75;;
57832;SDS011;43667;53.036;6.740;2023-12-20T13:40:27;12.13;;;2.15;;
57832;SDS011;43667;53.036;6.740;2023-12-20T13:42:53;12.88;;;2.55;;
57832;SDS011;43667;53.036;6.740;2023-12-20T13:45:20;11.00;;;1.95;;
57832;SDS011;43667;53.036;6.740;2023-12-20T13:47:46;11.80;;;1.83;;
57832;SDS011;43667;53.036;6.740;2023-12-20T13:50:12;14.60;;;2.17;;
57832;SDS011;43667;53.036;6.740;2023-12-20T13:52:38;10.70;;;1.83;;
57832;SDS011;43667;53.036;6.740;2023-12-20T13:55:04;11.88;;;1.80;;
57832;SDS011;43667;53.036;6.740;2023-12-20T13:57:32;12.02;;;1.67;;
57832;SDS011;43667;53.036;6.740;2023-12-20T13:59:59;9.57;;;1.50;;
57832;SDS011;43667;53.036;6.740;2023-12-20T14:02:25;8.60;;;2.00;;
57832;SDS011;43667;53.036;6.740;2023-12-20T14:04:52;10.32;;;1.70;;
57832;SDS011;43667;53.036;6.740;2023-12-20T14:07:18;10.20;;;2.15;;
57832;SDS011;43667;53.036;6.740;2023-12-20T14:09:44;8.60;;;1.75;;
57832;SDS011;43667;53.036;6.740;2023-12-20T14:12:10;7.55;;;1.23;;
57832;SDS011;43667;53.036;6.740;2023-12-20T14:14:37;9.25;;;1.13;;
57832;SDS011;43667;53.036;6.740;2023-12-20T14:17:03;12.45;;;2.10;;
57832;SDS011;43667;53.036;6.740;2023-12-20T14:19:31;10.40;;;1.45;;
57832;SDS011;43667;53.036;6.740;2023-12-20T14:21:57;12.23;;;1.77;;
57832;SDS011;43667;53.036;6.740;2023-12-20T14:24:26;10.93;;;1.45;;
57832;SDS011;43667;53.036;6.740;2023-12-20T14:26:52;14.00;;;1.80;;
57832;SDS011;43667;53.036;6.740;2023-12-20T14:29:18;9.55;;;1.20;;
57832;SDS011;43667;53.036;6.740;2023-12-20T14:31:44;7.55;;;1.42;;
57832;SDS011;43667;53.036;6.740;2023-12-20T14:34:10;8.10;;;1.50;;
57832;SDS011;43667;53.036;6.740;2023-12-20T14:36:37;6.03;;;1.00;;